Holland, Arkansas
Current Conditions -  °F | °C
As of 12:58 AM on Wednesday 22 Oct 2014 (Local Time) from KLRF Reporting Station
Clear Clear  
Wind Chill: 51°   Ceiling: Unl
Heat Index: 51°   Visibility: 10mi
Dew Point: 48°   Wind: 2mph
Humidity: 91%   Direction: 250°WSW
Pressure: 30.11"   Gusts: NA
Location:  35.0719°N, 92.1713°W
Report Text: KLRF 220558Z AUTO 25002KT 10SM CLR 10/09 A3011 RMK AO2 SLP198 T01030089 10171 20102 402610091 50000
Loading
Personal Weather Stations






























Interactive Weather Map
Tropical Storm Tracking
New forecast layout! Learn more

10-Day Weather Forecast

Advertisements
Track Severe Weather on mobile